Time;durP1;ratioP1;P1;durP2;ratioP2;P2;SDS_P1;SDS_P2;PMS_P1;PMS_P2;Temp;Humidity;BMP_temperature;BMP_pressure;BME280_temperature;BME280_humidity;BME280_pressure;Samples;Min_cycle;Max_cycle;Signal;HPM_P1;HPM_P2
2021/04/25 00:00:21;;;;;;;2.50;2.13;;;;;;;14.88;47.04;96938.16;5059544;28;20408;-66
2021/04/25 00:02:47;;;;;;;3.47;2.40;;;;;;;14.88;46.83;96936.38;5058015;28;20131;-65
2021/04/25 00:05:17;;;;;;;4.05;2.30;;;;;;;14.89;47.03;96942.44;5061739;28;20401;-66
2021/04/25 00:07:44;;;;;;;2.72;2.05;;;;;;;14.86;46.99;96939.19;5069041;28;20054;-67
2021/04/25 00:10:12;;;;;;;3.15;2.28;;;;;;;14.90;46.86;96933.53;5065242;28;20040;-66
2021/04/25 00:12:41;;;;;;;3.67;2.45;;;;;;;14.87;47.20;96932.13;5056189;28;20048;-66
2021/04/25 00:15:17;;;;;;;3.97;2.70;;;;;;;14.89;46.83;96924.88;5057643;28;20048;-66
2021/04/25 00:17:43;;;;;;;4.80;2.80;;;;;;;14.86;46.99;96928.69;5061221;28;20052;-66
2021/04/25 00:20:11;;;;;;;4.47;2.53;;;;;;;14.88;47.06;96927.69;5059310;28;20394;-66
2021/04/25 00:22:37;;;;;;;;;;;;;;;14.88;46.79;96932.91;5053174;28;20048;-66
2021/04/25 00:25:04;;;;;;;3.97;2.40;;;;;;;14.86;46.75;96926.06;5064461;28;20334;-68
2021/04/25 00:27:30;;;;;;;3.30;2.20;;;;;;;14.81;46.96;96917.16;5067311;28;20159;-66
2021/04/25 00:29:57;;;;;;;2.92;2.33;;;;;;;14.86;46.89;96926.06;5053325;28;20045;-66
2021/04/25 00:32:23;;;;;;;3.92;2.70;;;;;;;14.85;47.13;96921.81;5057973;28;20041;-67
2021/04/25 00:34:49;;;;;;;4.05;2.83;;;;;;;14.86;46.70;96925.28;5062325;28;20056;-66
2021/04/25 00:37:15;;;;;;;3.58;2.15;;;;;;;14.85;46.67;96918.38;5063143;28;20055;-66
2021/04/25 00:39:41;;;;;;;2.85;2.40;;;;;;;14.85;47.13;96916.56;5061845;28;20059;-66
2021/04/25 00:42:08;;;;;;;3.67;2.30;;;;;;;14.84;46.72;96914.97;5062830;28;20041;-66
2021/04/25 00:44:34;;;;;;;3.67;2.20;;;;;;;14.85;46.69;96913.94;5067601;28;20480;-66
2021/04/25 00:47:00;;;;;;;2.60;2.30;;;;;;;14.86;46.88;96915.59;5059204;28;20394;-66
2021/04/25 00:49:28;;;;;;;3.85;2.53;;;;;;;14.86;46.88;96906.94;5061379;28;20040;-66
2021/04/25 00:51:55;;;;;;;4.40;2.55;;;;;;;14.83;47.04;96908.09;5055248;28;20064;-65
2021/04/25 00:54:21;;;;;;;2.63;2.05;;;;;;;14.86;46.69;96912.97;5067781;28;20041;-67
2021/04/25 00:56:48;;;;;;;5.18;2.80;;;;;;;14.88;46.96;96919.81;5058108;28;20049;-65
2021/04/25 00:59:16;;;;;;;3.63;2.53;;;;;;;14.86;46.68;96926.06;5055462;28;20045;-65
2021/04/25 01:01:42;;;;;;;3.17;2.10;;;;;;;14.86;47.04;96920.84;5056981;28;20052;-65
2021/04/25 01:04:08;;;;;;;3.78;2.40;;;;;;;14.85;47.10;96927.06;5057567;28;20037;-66
2021/04/25 01:06:34;;;;;;;3.97;2.45;;;;;;;14.82;46.78;96916.97;5064540;28;20562;-67
2021/04/25 01:09:00;;;;;;;3.70;2.42;;;;;;;14.85;46.93;96919.19;5069388;28;20079;-66
2021/04/25 01:11:26;;;;;;;3.30;2.25;;;;;;;14.85;46.73;96919.19;5059950;28;20049;-66
2021/04/25 01:13:52;;;;;;;3.28;2.40;;;;;;;14.84;47.03;96914.97;5058299;28;20037;-66
2021/04/25 01:16:19;;;;;;;2.65;2.00;;;;;;;14.85;46.93;96918.38;5054895;28;20123;-66
2021/04/25 01:18:46;;;;;;;4.22;2.42;;;;;;;14.83;46.88;96910.72;5055669;28;20053;-68
2021/04/25 01:21:13;;;;;;;3.03;2.37;;;;;;;14.83;46.64;96915.94;5057071;28;20090;-65
2021/04/25 01:23:39;;;;;;;2.87;2.43;;;;;;;14.85;46.83;96913.16;5053380;28;21120;-65
2021/04/25 01:26:05;;;;;;;5.30;2.50;;;;;;;14.81;46.78;96907.47;5060063;28;20041;-65
2021/04/25 01:28:32;;;;;;;4.15;2.33;;;;;;;14.81;46.50;96904.84;5057037;28;20048;-66
2021/04/25 01:30:58;;;;;;;3.25;2.38;;;;;;;14.78;46.72;96907.06;5061594;28;20036;-65
2021/04/25 01:33:28;;;;;;;3.40;2.50;;;;;;;14.84;46.82;96909.72;5065576;28;20036;-65
2021/04/25 01:35:54;;;;;;;3.35;2.50;;;;;;;14.85;46.68;96910.53;5057490;28;20039;-66
2021/04/25 01:38:21;;;;;;;2.87;2.53;;;;;;;14.84;46.83;96907.09;5068731;28;20427;-66
2021/04/25 01:40:47;;;;;;;2.63;2.20;;;;;;;14.85;46.80;96906.09;5056273;28;20044;-66
2021/04/25 01:43:13;;;;;;;3.33;2.50;;;;;;;14.79;46.86;96906.84;5058140;28;20051;-66
2021/04/25 01:45:39;;;;;;;3.53;2.10;;;;;;;14.84;46.85;96903.69;5055220;28;20036;-65
2021/04/25 01:48:07;;;;;;;3.00;2.28;;;;;;;14.83;46.47;96905.47;5055879;28;20052;-66
2021/04/25 01:50:35;;;;;;;3.25;2.50;;;;;;;14.83;46.68;96904.66;5061726;28;20040;-66
2021/04/25 01:53:02;;;;;;;2.47;2.28;;;;;;;14.84;46.74;96914.16;5060652;28;20040;-66
2021/04/25 01:55:31;;;;;;;4.78;2.50;;;;;;;14.77;46.49;96900.97;5055379;28;20465;-65
2021/04/25 01:57:59;;;;;;;3.17;2.40;;;;;;;14.81;46.79;96897.00;5043261;28;20044;-66
2021/04/25 02:00:34;;;;;;;2.20;2.00;;;;;;;14.84;46.70;96909.72;5059728;28;20048;-65
2021/04/25 02:03:01;;;;;;;3.47;2.42;;;;;;;14.83;46.76;96904.66;5061535;28;20040;-65
2021/04/25 02:05:28;;;;;;;4.22;2.70;;;;;;;14.85;46.89;96907.91;5063000;28;20075;-65
2021/04/25 02:07:54;;;;;;;5.25;2.65;;;;;;;14.84;46.92;96903.69;5056480;28;20072;-68
2021/04/25 02:10:22;;;;;;;3.38;2.28;;;;;;;14.82;46.92;96897.81;5061676;28;20049;-66
2021/04/25 02:12:49;;;;;;;3.80;2.20;;;;;;;14.81;46.65;96897.00;5062883;28;20040;-65
2021/04/25 02:15:16;;;;;;;2.80;2.50;;;;;;;14.82;47.00;96901.25;5065001;28;20047;-65
2021/04/25 02:17:43;;;;;;;2.80;2.15;;;;;;;14.82;46.77;96898.63;5054485;28;20780;-65
2021/04/25 02:20:14;;;;;;;6.15;2.30;;;;;;;14.82;46.73;96898.63;5055609;28;20457;-66
2021/04/25 02:22:40;;;;;;;2.72;1.95;;;;;;;14.81;46.92;96897.00;5056044;28;20044;-65
2021/04/25 02:25:09;;;;;;;3.25;2.08;;;;;;;14.81;46.82;96901.41;5054040;28;20040;-65
2021/04/25 02:27:36;;;;;;;3.20;2.50;;;;;;;14.82;46.36;96903.06;5060840;28;20523;-65
2021/04/25 02:30:06;;;;;;;4.63;2.13;;;;;;;14.82;46.73;96900.44;5056679;28;20051;-68
2021/04/25 02:32:32;;;;;;;2.80;1.95;;;;;;;14.82;46.86;96903.88;5055067;28;20049;-65
2021/04/25 02:34:58;;;;;;;2.55;2.03;;;;;;;14.82;46.83;96897.81;5053410;28;20051;-66
2021/04/25 02:37:24;;;;;;;2.95;2.03;;;;;;;14.82;46.81;96897.81;5059400;28;20059;-66
2021/04/25 02:39:50;;;;;;;3.45;2.35;;;;;;;14.83;46.56;96902.03;5068812;28;20048;-66
2021/04/25 02:42:16;;;;;;;3.63;2.42;;;;;;;14.83;46.76;96897.59;5064311;28;20123;-66
2021/04/25 02:44:42;;;;;;;3.70;2.17;;;;;;;14.83;46.67;96907.28;5056430;28;20043;-66
2021/04/25 02:47:08;;;;;;;3.05;2.05;;;;;;;14.83;46.84;96909.91;5051211;28;20043;-66
2021/04/25 02:49:34;;;;;;;2.65;2.03;;;;;;;14.82;46.85;96901.25;5066910;28;20370;-66
2021/04/25 02:52:00;;;;;;;4.10;2.60;;;;;;;14.82;46.78;96903.88;5057972;28;20036;-66
2021/04/25 02:54:26;;;;;;;2.88;1.90;;;;;;;14.82;46.88;96913.53;5048195;28;20037;-66
2021/04/25 02:56:54;;;;;;;3.20;2.28;;;;;;;14.84;46.84;96908.94;5063722;28;20067;-66
2021/04/25 02:59:20;;;;;;;4.80;2.50;;;;;;;14.83;46.62;96915.94;5056431;28;20033;-66
2021/04/25 03:01:46;;;;;;;3.38;2.17;;;;;;;14.83;46.52;96905.47;5055875;28;20048;-66
2021/04/25 03:04:12;;;;;;;3.08;2.17;;;;;;;14.83;46.72;96910.72;5059290;28;20048;-66
2021/04/25 03:06:38;;;;;;;2.60;2.03;;;;;;;14.82;46.78;96903.88;5056659;28;20146;-66
2021/04/25 03:09:05;;;;;;;2.97;1.98;;;;;;;14.84;47.08;96914.16;5061635;28;20041;-66
2021/04/25 03:11:31;;;;;;;2.65;2.38;;;;;;;14.82;46.88;96905.69;5049434;28;20052;-66
2021/04/25 03:13:57;;;;;;;2.40;1.95;;;;;;;14.82;46.93;96905.69;5061773;28;20042;-66
2021/04/25 03:16:24;;;;;;;3.65;2.22;;;;;;;14.83;46.67;96905.47;5056614;28;20036;-66
2021/04/25 03:18:50;;;;;;;;;;;;;;;14.81;46.67;96899.59;5063033;28;20465;-66
2021/04/25 03:21:17;;;;;;;2.88;2.10;;;;;;;14.82;46.71;96903.06;5060804;28;20372;-66
2021/04/25 03:23:43;;;;;;;2.53;1.85;;;;;;;14.80;46.71;96900.63;5055850;28;20086;-66
2021/04/25 03:26:09;;;;;;;3.92;2.33;;;;;;;14.78;46.92;96897.38;5054103;28;20037;-66
2021/04/25 03:28:35;;;;;;;3.30;2.25;;;;;;;14.82;46.85;96897.81;5053067;28;20041;-66
2021/04/25 03:31:02;;;;;;;3.78;2.10;;;;;;;14.80;46.90;96891.97;5058531;28;20055;-66
2021/04/25 03:33:28;;;;;;;2.65;2.30;;;;;;;14.78;46.89;96896.56;5056838;28;20029;-66
2021/04/25 03:35:55;;;;;;;2.83;2.10;;;;;;;14.79;46.94;96898.97;5058958;28;20051;-66
2021/04/25 03:38:21;;;;;;;4.68;2.47;;;;;;;14.79;46.87;96898.19;5057759;28;20489;-66
2021/04/25 03:40:47;;;;;;;3.53;2.55;;;;;;;14.79;46.78;96906.03;5057995;28;20535;-66
2021/04/25 03:43:13;;;;;;;3.40;2.20;;;;;;;14.80;46.92;96903.25;5056282;28;20060;-66
2021/04/25 03:45:39;;;;;;;3.10;2.35;;;;;;;14.81;47.27;96899.59;5064100;28;20492;-66
2021/04/25 03:48:05;;;;;;;2.80;2.22;;;;;;;14.80;46.73;96895.38;5056622;28;20127;-66
2021/04/25 03:50:32;;;;;;;2.80;2.20;;;;;;;14.79;46.95;96893.75;5071930;28;20054;-66
2021/04/25 03:52:58;;;;;;;2.88;2.20;;;;;;;14.73;47.02;96891.91;5054692;28;20151;-66
2021/04/25 03:55:24;;;;;;;2.78;2.10;;;;;;;14.76;46.84;96901.19;5059112;28;20429;-66
2021/04/25 03:57:51;;;;;;;2.63;2.03;;;;;;;14.80;47.04;96908.47;5059024;28;20055;-66
2021/04/25 04:00:18;;;;;;;2.25;2.05;;;;;;;14.80;46.85;96903.25;5053472;28;20533;-66
2021/04/25 04:02:45;;;;;;;3.45;2.10;;;;;;;14.80;47.02;96900.63;5053289;28;20041;-66
2021/04/25 04:05:12;;;;;;;2.70;2.00;;;;;;;14.80;47.02;96897.19;5053389;28;20040;-68
2021/04/25 04:07:39;;;;;;;4.03;2.10;;;;;;;14.75;46.83;96882.06;5055730;28;20496;-66
2021/04/25 04:10:05;;;;;;;3.57;2.03;;;;;;;14.79;46.90;96892.94;5059485;28;20047;-67
2021/04/25 04:12:32;;;;;;;2.58;2.00;;;;;;;14.80;46.90;96897.19;5063319;28;20408;-66
2021/04/25 04:14:58;;;;;;;3.00;2.15;;;;;;;14.79;46.92;96885.06;5064496;28;20051;-66
2021/04/25 04:17:24;;;;;;;4.53;2.00;;;;;;;14.80;46.79;96887.53;5061874;28;20041;-66
2021/04/25 04:19:50;;;;;;;2.35;2.10;;;;;;;14.81;46.74;96890.94;5054149;28;20095;-66
2021/04/25 04:22:16;;;;;;;3.00;2.20;;;;;;;14.81;46.99;96894.38;5057519;28;20136;-66
2021/04/25 04:24:42;;;;;;;2.35;1.90;;;;;;;14.83;47.32;96900.22;5059439;28;20041;-66
2021/04/25 04:27:08;;;;;;;3.55;2.30;;;;;;;14.82;46.65;96903.88;5065970;28;20033;-66
2021/04/25 04:29:34;;;;;;;2.50;2.28;;;;;;;14.82;46.67;96896.00;5061262;28;20103;-66
2021/04/25 04:32:00;;;;;;;2.60;2.17;;;;;;;14.82;46.92;96901.25;5060143;28;20048;-66
2021/04/25 04:34:27;;;;;;;2.65;2.15;;;;;;;14.83;46.78;96910.72;5059020;28;20441;-67
2021/04/25 04:36:54;;;;;;;3.03;2.08;;;;;;;14.82;46.84;96901.25;5060106;28;20047;-66
2021/04/25 04:39:20;;;;;;;2.85;1.85;;;;;;;14.83;46.93;96899.44;5057340;28;20382;-65
2021/04/25 04:41:46;;;;;;;3.00;2.17;;;;;;;14.81;46.77;96910.09;5055321;28;20395;-66
2021/04/25 04:44:12;;;;;;;3.70;2.08;;;;;;;14.82;46.78;96905.69;5066761;28;20033;-66
2021/04/25 04:46:38;;;;;;;3.00;2.13;;;;;;;14.84;46.56;96909.72;5056974;28;20047;-66
2021/04/25 04:49:04;;;;;;;2.50;1.95;;;;;;;14.84;47.06;96904.50;5058092;28;20528;-66
2021/04/25 04:51:30;;;;;;;3.83;2.22;;;;;;;14.84;47.01;96908.94;5066987;28;20373;-66
2021/04/25 04:53:56;;;;;;;3.85;2.30;;;;;;;14.83;46.75;96915.94;5064057;28;20395;-66
2021/04/25 04:56:22;;;;;;;2.88;2.38;;;;;;;14.84;46.67;96912.34;5058057;28;20043;-66
2021/04/25 04:58:48;;;;;;;2.63;2.10;;;;;;;14.84;46.77;96922.84;5059464;28;20041;-66
2021/04/25 05:01:14;;;;;;;2.33;2.00;;;;;;;14.84;46.86;96925.44;5060660;28;20052;-66
2021/04/25 05:03:40;;;;;;;4.28;1.70;;;;;;;14.83;46.69;96921.19;5064846;28;20036;-66
2021/04/25 05:06:07;;;;;;;3.97;1.95;;;;;;;14.86;47.00;96928.69;5058356;28;20041;-66
2021/04/25 05:08:33;;;;;;;3.13;2.33;;;;;;;14.84;46.61;96935.13;5055609;28;20036;-66
2021/04/25 05:10:59;;;;;;;2.72;2.30;;;;;;;14.85;46.94;96945.41;5058205;28;20052;-66
2021/04/25 05:13:25;;;;;;;3.25;2.45;;;;;;;14.87;46.91;96953.09;5063084;28;20127;-66
2021/04/25 05:15:51;;;;;;;2.78;2.40;;;;;;;14.86;46.90;96959.34;5061938;28;20055;-66
2021/04/25 05:18:17;;;;;;;3.58;2.67;;;;;;;14.85;46.70;96955.09;5063090;28;20501;-66
2021/04/25 05:20:43;;;;;;;4.22;2.22;;;;;;;14.85;46.62;96957.69;5066008;28;20083;-65
2021/04/25 05:23:09;;;;;;;3.00;2.10;;;;;;;14.82;46.76;96966.75;5055232;28;20151;-66
2021/04/25 05:25:35;;;;;;;4.22;2.42;;;;;;;14.85;46.78;96966.38;5063418;28;20140;-66
2021/04/25 05:28:02;;;;;;;4.22;2.78;;;;;;;14.85;46.50;96968.19;5068961;28;20048;-66
2021/04/25 05:30:28;;;;;;;2.70;2.30;;;;;;;14.83;46.67;96968.38;5063526;28;20045;-66
2021/04/25 05:32:54;;;;;;;3.60;2.28;;;;;;;14.86;46.93;96972.44;5058880;28;20496;-66
2021/04/25 05:35:21;;;;;;;3.47;2.40;;;;;;;14.85;46.98;96976.84;5056715;28;20053;-65
2021/04/25 05:37:47;;;;;;;4.38;2.42;;;;;;;14.84;46.75;96975.25;5059991;28;20060;-66
2021/04/25 05:40:15;;;;;;;3.00;2.20;;;;;;;14.93;46.93;96983.78;5056943;28;20119;-66
2021/04/25 05:42:41;;;;;;;3.90;2.17;;;;;;;14.85;47.48;96987.34;5061302;28;20493;-66
2021/04/25 05:45:19;;;;;;;2.58;1.92;;;;;;;14.74;47.57;96977.38;5056931;28;20404;-66
2021/04/25 05:47:47;;;;;;;5.07;2.03;;;;;;;14.73;47.43;96983.63;5061628;28;20485;-66
2021/04/25 05:50:14;;;;;;;2.00;1.65;;;;;;;14.70;47.63;96978.72;5059066;28;20504;-66
2021/04/25 05:52:40;;;;;;;2.75;1.75;;;;;;;14.68;47.50;96978.09;5058514;28;20036;-66
2021/04/25 05:55:06;;;;;;;3.85;2.03;;;;;;;14.67;47.58;96986.97;5058995;28;20036;-65
2021/04/25 05:57:32;;;;;;;2.15;1.80;;;;;;;14.73;47.47;96994.09;5057243;28;20044;-65
2021/04/25 05:59:58;;;;;;;2.50;2.10;;;;;;;14.82;47.83;96998.22;5062523;28;20044;-66
2021/04/25 06:02:26;;;;;;;209.43;12.40;;;;;;;14.81;47.44;96991.31;5061462;28;20393;-66
2021/04/25 06:04:52;;;;;;;131.68;9.27;;;;;;;14.87;47.23;96989.78;5058317;28;20043;-66
2021/04/25 06:07:18;;;;;;;51.42;4.80;;;;;;;14.88;47.20;96995.81;5057932;28;20432;-66
2021/04/25 06:09:44;;;;;;;55.28;4.75;;;;;;;14.87;47.30;96992.41;5058111;28;20079;-67
2021/04/25 06:12:13;;;;;;;57.00;5.68;;;;;;;14.86;46.99;96982.94;5061609;28;20135;-64
2021/04/25 06:14:39;;;;;;;54.28;5.30;;;;;;;14.88;47.04;96995.81;5061050;28;20405;-64
2021/04/25 06:17:06;;;;;;;41.47;4.65;;;;;;;14.86;47.33;96996.03;5058338;28;20134;-67
2021/04/25 06:19:32;;;;;;;57.65;5.43;;;;;;;14.89;47.02;97000.09;5062238;28;20171;-66
2021/04/25 06:21:58;;;;;;;48.40;4.88;;;;;;;14.88;47.17;97001.06;5056599;28;20049;-65
2021/04/25 06:24:24;;;;;;;41.58;4.68;;;;;;;14.88;47.26;96994.03;5059331;28;20068;-68
2021/04/25 06:26:50;;;;;;;44.08;4.70;;;;;;;14.88;47.27;96999.28;5062919;28;20389;-67
2021/04/25 06:29:16;;;;;;;25.83;4.75;;;;;;;14.85;47.36;97000.44;5062917;28;20046;-67
2021/04/25 06:31:42;;;;;;;35.42;4.25;;;;;;;14.88;47.25;97001.06;5064460;28;20052;-67
2021/04/25 06:34:08;;;;;;;35.75;4.82;;;;;;;14.90;47.06;97005.16;5063068;28;20056;-67
2021/04/25 06:36:41;;;;;;;37.33;5.05;;;;;;;14.90;47.14;97007.78;5054251;28;20040;-67
2021/04/25 06:39:08;;;;;;;33.05;4.78;;;;;;;14.89;46.67;97006.13;5058552;28;20065;-67
2021/04/25 06:41:35;;;;;;;28.05;4.40;;;;;;;14.89;46.87;97013.19;5058194;28;20116;-67
2021/04/25 06:44:02;;;;;;;25.00;4.13;;;;;;;14.89;46.80;97019.22;5057684;28;20120;-67
2021/04/25 06:46:29;;;;;;;18.27;4.25;;;;;;;14.86;47.08;97011.75;5058539;28;20045;-67
2021/04/25 06:48:56;;;;;;;23.42;4.22;;;;;;;14.86;46.99;97011.75;5060970;28;20102;-67
2021/04/25 06:51:22;;;;;;;29.30;4.17;;;;;;;14.92;47.28;97010.19;5057525;28;20045;-67
2021/04/25 06:53:49;;;;;;;24.05;3.75;;;;;;;14.91;47.01;97016.44;5056580;28;20052;-67
2021/04/25 06:56:15;;;;;;;25.02;4.35;;;;;;;14.94;47.11;97016.03;5054564;28;20044;-68
2021/04/25 06:58:42;;;;;;;21.55;4.28;;;;;;;14.95;47.21;97015.06;5056985;28;20044;-66
2021/04/25 07:01:10;;;;;;;21.70;4.00;;;;;;;14.94;47.11;97019.47;5062970;28;20051;-65
2021/04/25 07:03:38;;;;;;;16.05;4.07;;;;;;;14.90;47.37;97014.78;5058159;28;20043;-67
2021/04/25 07:06:05;;;;;;;17.48;3.92;;;;;;;14.94;47.39;97022.09;5054451;28;20127;-65
2021/04/25 07:08:32;;;;;;;14.30;3.95;;;;;;;14.95;47.45;97020.31;5058828;28;20041;-65
2021/04/25 07:10:58;;;;;;;13.35;3.95;;;;;;;14.94;47.35;97021.28;5059023;28;20055;-64
2021/04/25 07:13:24;;;;;;;13.20;3.20;;;;;;;14.96;47.33;97021.91;5052190;28;20107;-65
2021/04/25 07:15:50;;;;;;;14.18;3.60;;;;;;;14.95;47.37;97023.72;5048890;28;20047;-64
2021/04/25 07:18:16;;;;;;;14.55;3.45;;;;;;;14.96;47.41;97030.59;5058036;28;20493;-65
2021/04/25 07:20:43;;;;;;;13.32;3.45;;;;;;;14.97;47.54;97020.94;5054917;28;20586;-66
2021/04/25 07:23:09;;;;;;;17.38;3.70;;;;;;;14.98;47.30;97028.59;5058226;28;20106;-65
2021/04/25 07:25:35;;;;;;;7.35;2.92;;;;;;;14.94;47.35;97016.84;5059601;28;20044;-65
2021/04/25 07:28:01;;;;;;;9.95;3.05;;;;;;;14.99;47.40;97029.41;5061255;28;20048;-65
2021/04/25 07:30:28;;;;;;;10.00;3.33;;;;;;;14.98;47.29;97027.78;5056359;28;20053;-64
2021/04/25 07:32:54;;;;;;;15.25;3.30;;;;;;;14.97;47.45;97026.19;5056264;28;20416;-66
2021/04/25 07:35:20;;;;;;;11.20;3.60;;;;;;;14.97;47.49;97026.19;5060044;28;21226;-66
2021/04/25 07:37:48;;;;;;;9.15;3.63;;;;;;;14.97;47.45;97026.19;5060529;28;20819;-66
2021/04/25 07:40:15;;;;;;;12.75;3.30;;;;;;;14.95;47.41;97023.72;5057945;28;20113;-66
2021/04/25 07:42:41;;;;;;;8.15;3.10;;;;;;;14.97;47.52;97034.03;5062981;28;20040;-67
2021/04/25 07:45:12;;;;;;;6.80;3.10;;;;;;;14.97;47.34;97032.22;5057587;28;20040;-67
2021/04/25 07:47:42;;;;;;;9.52;3.38;;;;;;;14.96;47.49;97030.59;5065208;28;20048;-67
2021/04/25 07:50:09;;;;;;;13.52;3.90;;;;;;;14.94;47.41;97035.19;5068677;28;20499;-66
2021/04/25 07:52:35;;;;;;;7.33;3.13;;;;;;;14.98;47.52;97041.69;5051808;28;20484;-67
2021/04/25 07:55:04;;;;;;;8.75;3.55;;;;;;;14.97;47.48;97040.09;5056656;28;20296;-66
2021/04/25 07:57:31;;;;;;;8.18;3.33;;;;;;;14.97;47.36;97050.56;5050598;28;20048;-66
2021/04/25 07:59:57;;;;;;;8.65;3.30;;;;;;;14.97;47.50;97047.94;5050928;28;20060;-67
2021/04/25 08:02:23;;;;;;;8.77;3.42;;;;;;;14.99;47.58;97039.91;5061347;28;20112;-67
2021/04/25 08:04:50;;;;;;;9.55;3.20;;;;;;;14.98;47.77;97046.13;5053159;28;20434;-66
2021/04/25 08:07:17;;;;;;;7.77;3.60;;;;;;;14.97;47.58;97047.94;5049192;28;20491;-66
2021/04/25 08:09:43;;;;;;;7.38;2.85;;;;;;;14.97;47.42;97044.53;5051602;28;20312;-66
2021/04/25 08:12:10;;;;;;;7.85;3.45;;;;;;;15.01;47.35;97046.56;5055274;28;20051;-67
2021/04/25 08:14:37;;;;;;;8.80;3.38;;;;;;;15.00;47.52;97046.75;5050780;28;20304;-66
2021/04/25 08:17:03;;;;;;;7.70;2.90;;;;;;;15.00;47.48;97049.38;5050172;28;20524;-66
2021/04/25 08:19:30;;;;;;;7.05;3.50;;;;;;;14.97;47.52;97044.53;5053643;28;20512;-67
2021/04/25 08:21:56;;;;;;;7.15;2.97;;;;;;;14.99;47.54;97051.19;5049195;28;20052;-66
2021/04/25 08:24:22;;;;;;;7.70;3.17;;;;;;;14.97;47.41;97047.94;5049758;28;20423;-66
2021/04/25 08:26:48;;;;;;;6.85;2.95;;;;;;;15.01;47.46;97053.63;5053320;28;20041;-64
2021/04/25 08:29:15;;;;;;;6.78;3.30;;;;;;;14.98;47.56;97054.78;5057672;28;20052;-65
2021/04/25 08:31:41;;;;;;;5.97;3.08;;;;;;;14.98;47.57;97043.50;5054315;28;20393;-64
2021/04/25 08:34:07;;;;;;;5.25;3.30;;;;;;;15.00;47.54;97050.19;5059240;28;20040;-66
2021/04/25 08:36:33;;;;;;;5.13;2.90;;;;;;;14.99;47.23;97053.00;5058396;28;20147;-67
2021/04/25 08:39:00;;;;;;;5.28;3.13;;;;;;;15.00;47.59;97049.38;5058185;28;20047;-66
2021/04/25 08:41:26;;;;;;;6.57;3.30;;;;;;;15.02;47.66;97053.44;5061561;28;20041;-67
2021/04/25 08:43:53;;;;;;;9.37;3.37;;;;;;;15.11;47.36;97054.13;5057951;28;20044;-67
2021/04/25 08:46:22;;;;;;;16.57;4.03;;;;;;;15.11;47.26;97048.06;5054207;28;20041;-66
2021/04/25 08:48:50;;;;;;;8.27;3.00;;;;;;;15.14;47.21;97048.50;5056945;28;20064;-66
2021/04/25 08:51:19;;;;;;;8.38;3.13;;;;;;;15.04;47.66;97048.81;5060110;28;20079;-66
2021/04/25 08:53:46;;;;;;;7.47;3.30;;;;;;;15.06;47.46;97041.56;5059661;28;20040;-66
2021/04/25 08:56:14;;;;;;;7.55;3.58;;;;;;;15.15;47.01;97050.13;5061825;28;20127;-67
2021/04/25 08:58:42;;;;;;;;;;;;;;;15.19;46.80;97051.38;5060497;28;20424;-66
2021/04/25 09:01:09;;;;;;;7.63;3.20;;;;;;;15.19;46.93;97045.31;5055692;28;19928;-68
2021/04/25 09:03:35;;;;;;;5.15;2.70;;;;;;;15.17;47.09;97044.69;5058274;28;20056;-67
2021/04/25 09:06:05;;;;;;;6.50;3.45;;;;;;;15.18;47.05;97041.91;5057247;28;20114;-69
2021/04/25 09:08:47;;;;;;;8.40;3.08;;;;;;;15.17;47.09;97037.63;5059881;28;20147;-67
2021/04/25 09:11:26;;;;;;;5.75;3.20;;;;;;;15.11;47.23;97040.19;5065904;28;20046;-67
2021/04/25 09:14:17;;;;;;;5.40;2.70;;;;;;;15.13;47.37;97046.88;5070388;28;20108;-68
2021/04/25 09:16:45;;;;;;;14.20;4.07;;;;;;;15.73;46.02;97041.34;5060158;28;20480;-64
2021/04/25 09:19:13;;;;;;;11.43;3.10;;;;;;;15.74;46.06;97037.69;5059064;28;20111;-63
2021/04/25 09:21:57;;;;;;;9.90;3.35;;;;;;;15.65;46.26;97037.00;5061314;28;20045;-68
2021/04/25 09:24:33;;;;;;;9.52;3.58;;;;;;;15.61;45.94;97039.19;5060743;28;20025;-67
2021/04/25 09:26:59;;;;;;;11.85;3.20;;;;;;;15.61;46.08;97038.38;5058575;28;20048;-67
2021/04/25 09:29:45;;;;;;;13.43;3.33;;;;;;;15.63;46.48;97036.38;5056663;28;20052;-65
2021/04/25 09:32:22;;;;;;;10.82;3.22;;;;;;;16.05;45.73;97035.47;5060160;28;20411;-71
2021/04/25 09:34:49;;;;;;;7.57;2.97;;;;;;;16.20;45.33;97031.91;5059803;28;20086;-61
2021/04/25 09:37:17;;;;;;;9.43;3.47;;;;;;;16.10;45.65;97037.50;5061088;28;20074;-62
2021/04/25 09:40:03;;;;;;;13.63;3.00;;;;;;;15.86;46.44;97033.53;5060742;28;20047;-65
2021/04/25 09:42:31;;;;;;;15.02;4.18;;;;;;;-145.19;100.00;59999.88;5059736;28;20040;-64
2021/04/25 09:44:57;;;;;;;;;;;;;;;-145.19;100.00;59999.88;5059038;28;20040;-67
2021/04/25 09:47:32;;;;;;;11.73;3.42;;;;;;;-145.19;100.00;59999.88;5060843;28;19924;-66
2021/04/25 09:50:03;;;;;;;5.28;2.80;;;;;;;-145.19;100.00;59999.88;5061072;28;20056;-68
2021/04/25 09:52:29;;;;;;;11.15;3.60;;;;;;;-145.19;100.00;59999.88;5059158;28;20037;-67
2021/04/25 10:13:05;;;;;;;5.30;3.08;;;;;;;15.75;47.20;97023.59;5086781;27;20382;-66
